createdAt,value
2022-12-23T00:04:19.107Z,73.25
2022-12-23T00:09:21.158Z,73.17
2022-12-23T00:14:47.553Z,73.17
2022-12-23T00:19:49.959Z,73.10
2022-12-23T00:24:51.559Z,73.09
2022-12-23T00:29:53.449Z,73.03
2022-12-23T00:34:55.050Z,73.15
2022-12-23T00:40:15.628Z,73.07
2022-12-23T00:45:17.250Z,73.29
2022-12-23T00:50:18.897Z,73.80
2022-12-23T00:55:20.805Z,73.61
2022-12-23T01:00:43.021Z,73.69
2022-12-23T01:05:47.679Z,73.67
2022-12-23T01:10:49.243Z,73.74
2022-12-23T01:15:50.837Z,73.85
2022-12-23T01:20:52.455Z,73.83
2022-12-23T01:26:02.858Z,73.76
2022-12-23T01:31:06.112Z,73.75
2022-12-23T01:36:10.132Z,73.77
2022-12-23T01:41:43.593Z,74.72
2022-12-23T01:46:45.324Z,74.04
2022-12-23T01:51:46.930Z,73.49
2022-12-23T01:56:48.934Z,73.21
2022-12-23T02:02:09.264Z,73.16
2022-12-23T02:07:30.564Z,73.13
2022-12-23T02:13:01.057Z,73.20
2022-12-23T02:18:40.186Z,73.33
2022-12-23T02:23:50.655Z,73.17
2022-12-23T02:29:07.077Z,73.34
2022-12-23T02:34:21.034Z,73.47
2022-12-23T02:39:38.219Z,73.47
2022-12-23T02:44:53.547Z,73.55
2022-12-23T02:49:59.010Z,73.07
2022-12-23T02:55:06.310Z,72.75
2022-12-23T03:00:10.530Z,72.67
2022-12-23T03:05:24.136Z,72.63
2022-12-23T03:10:48.312Z,72.53
2022-12-23T03:16:18.099Z,72.53
2022-12-23T03:21:29.578Z,72.53
2022-12-23T03:26:40.077Z,72.23
2022-12-23T03:31:43.803Z,72.16
2022-12-23T03:36:58.822Z,71.74
2022-12-23T03:42:19.573Z,72.47
2022-12-23T03:47:24.284Z,72.99
2022-12-23T03:52:35.526Z,73.12
2022-12-23T03:57:44.693Z,73.62
2022-12-23T04:03:10.679Z,73.83
2022-12-23T04:08:27.361Z,74.49
2022-12-23T04:13:30.240Z,74.54
2022-12-23T04:18:32.099Z,74.48
2022-12-23T04:23:33.719Z,74.51
2022-12-23T04:28:35.301Z,74.62
2022-12-23T04:33:36.890Z,74.52
2022-12-23T04:38:38.474Z,73.92
2022-12-23T04:43:40.083Z,74.07
2022-12-23T04:48:41.697Z,74.15
2022-12-23T04:53:43.332Z,74.08
2022-12-23T04:58:44.988Z,73.85
2022-12-23T05:03:46.597Z,73.43
2022-12-23T05:08:48.272Z,73.43
2022-12-23T05:13:49.927Z,73.75
2022-12-23T05:18:51.557Z,73.97
2022-12-23T05:23:53.238Z,73.91
2022-12-23T05:28:55.721Z,73.40
2022-12-23T05:34:02.316Z,73.03
2022-12-23T05:39:07.436Z,73.05
2022-12-23T05:44:09.025Z,72.91
2022-12-23T05:49:10.614Z,73.10
2022-12-23T05:54:12.276Z,72.80
2022-12-23T05:59:13.880Z,72.54
2022-12-23T06:04:15.531Z,72.28
2022-12-23T06:09:17.172Z,72.18
2022-12-23T06:14:22.595Z,71.81
2022-12-23T06:19:26.859Z,71.74
2022-12-23T06:24:28.465Z,71.68
2022-12-23T06:29:30.061Z,71.73
2022-12-23T06:34:31.737Z,71.42
2022-12-23T06:39:33.697Z,71.16
2022-12-23T06:44:35.270Z,70.64
2022-12-23T06:49:36.883Z,70.93
2022-12-23T06:54:38.565Z,70.69
2022-12-23T06:59:40.424Z,70.88
2022-12-23T07:04:42.019Z,70.64
2022-12-23T07:09:43.762Z,70.64
2022-12-23T07:14:45.390Z,70.57
2022-12-23T07:19:46.992Z,70.70
2022-12-23T07:24:48.753Z,70.60
2022-12-23T07:29:50.444Z,70.78
2022-12-23T07:34:52.104Z,70.62
2022-12-23T07:39:53.675Z,70.78
2022-12-23T07:44:55.285Z,70.83
2022-12-23T07:49:56.882Z,71.07
2022-12-23T07:54:58.489Z,71.51
2022-12-23T08:00:00.094Z,71.93
2022-12-23T08:05:02.032Z,71.97
2022-12-23T08:10:04.945Z,71.81
2022-12-23T08:15:07.757Z,71.69
2022-12-23T08:20:09.774Z,71.47
2022-12-23T08:25:11.444Z,71.34
2022-12-23T08:30:13.433Z,71.16
2022-12-23T08:35:15.155Z,70.98
2022-12-23T08:40:16.821Z,70.98
2022-12-23T08:45:18.736Z,70.75
2022-12-23T08:50:20.438Z,70.55
2022-12-23T08:55:22.096Z,70.32
2022-12-23T09:00:23.831Z,70.23
2022-12-23T09:05:26.126Z,70.06
2022-12-23T09:10:27.877Z,70.28
2022-12-23T09:15:29.599Z,69.96
2022-12-23T09:20:31.487Z,70.07
2022-12-23T09:25:33.839Z,69.82
2022-12-23T09:30:35.478Z,69.77
2022-12-23T09:35:37.134Z,69.58
2022-12-23T09:40:41.055Z,69.23
2022-12-23T09:46:16.648Z,69.08
2022-12-23T09:51:23.427Z,69.23
2022-12-23T09:56:34.517Z,69.28
2022-12-23T10:02:11.501Z,68.88
2022-12-23T10:07:37.518Z,69.17
2022-12-23T10:12:43.195Z,69.41
2022-12-23T10:17:46.458Z,69.08
2022-12-23T10:22:48.137Z,69.26
2022-12-23T10:27:50.078Z,68.98
2022-12-23T10:33:23.474Z,69.08
2022-12-23T10:38:29.108Z,69.11
2022-12-23T10:44:28.817Z,69.12
2022-12-23T10:49:44.173Z,69.03
2022-12-23T10:54:47.675Z,68.96
2022-12-23T10:59:49.324Z,68.93
2022-12-23T11:04:52.107Z,68.93
2022-12-23T11:10:02.548Z,68.96
2022-12-23T11:15:04.473Z,69.60
2022-12-23T11:20:12.295Z,69.78
2022-12-23T11:25:29.286Z,69.59
2022-12-23T11:30:35.305Z,69.59
2022-12-23T11:35:37.557Z,69.35
2022-12-23T11:40:39.848Z,69.14
2022-12-23T11:45:41.492Z,69.41
2022-12-23T11:50:43.148Z,69.50
2022-12-23T11:56:09.266Z,69.50
2022-12-23T12:01:17.848Z,69.65
2022-12-23T12:06:20.452Z,69.76
2022-12-23T12:11:27.235Z,70.07
2022-12-23T12:17:16.543Z,70.42
2022-12-23T12:22:33.396Z,70.67
2022-12-23T12:27:39.384Z,70.57
2022-12-23T12:33:11.875Z,70.55
2022-12-23T12:38:29.835Z,70.93
2022-12-23T12:43:35.273Z,71.11
2022-12-23T12:48:54.798Z,71.88
2022-12-23T12:54:05.546Z,72.05
2022-12-23T12:59:25.050Z,71.79
2022-12-23T13:05:06.527Z,72.29
2022-12-23T13:10:20.420Z,72.56
2022-12-23T13:15:33.898Z,72.52
2022-12-23T13:20:59.558Z,72.67
2022-12-23T13:26:32.695Z,72.71
2022-12-23T13:32:01.736Z,72.74
2022-12-23T13:37:17.091Z,72.41
2022-12-23T13:42:28.618Z,72.32
2022-12-23T13:47:39.124Z,72.55
2022-12-23T13:53:10.320Z,73.22
2022-12-23T13:58:22.027Z,73.06
2022-12-23T14:03:31.889Z,72.50
2022-12-23T14:08:42.915Z,72.57
2022-12-23T14:13:46.410Z,73.02
2022-12-23T14:19:00.348Z,72.34
2022-12-23T14:24:08.079Z,72.97
2022-12-23T14:29:42.367Z,72.58
2022-12-23T14:35:16.857Z,72.48
2022-12-23T14:40:37.189Z,72.68
2022-12-23T14:45:43.555Z,72.90
2022-12-23T14:50:57.586Z,72.96
2022-12-23T14:56:27.065Z,72.91
2022-12-23T15:01:54.073Z,72.80
2022-12-23T15:07:16.939Z,72.64
2022-12-23T15:12:35.984Z,72.29
2022-12-23T15:17:37.708Z,71.87
2022-12-23T15:22:41.615Z,72.08
2022-12-23T15:27:43.504Z,71.73
2022-12-23T15:32:47.663Z,71.59
2022-12-23T15:37:51.523Z,71.43
2022-12-23T15:42:53.943Z,71.60
2022-12-23T15:47:55.755Z,71.54
2022-12-23T15:53:05.445Z,71.70
2022-12-23T15:58:07.363Z,71.63
2022-12-23T16:03:26.987Z,71.57
2022-12-23T16:08:30.556Z,71.57
2022-12-23T16:13:32.817Z,72.17
2022-12-23T16:18:46.930Z,73.07
2022-12-23T16:23:53.326Z,73.25
2022-12-23T16:29:01.501Z,74.21
2022-12-23T16:34:06.693Z,74.14
2022-12-23T16:39:18.999Z,74.94
2022-12-23T16:44:20.620Z,74.37
2022-12-23T16:49:29.531Z,74.07
2022-12-23T16:54:35.089Z,74.06
2022-12-23T16:59:37.431Z,73.91
2022-12-23T17:04:39.023Z,74.01
2022-12-23T17:09:40.651Z,74.27
2022-12-23T17:14:42.259Z,74.60
2022-12-23T17:19:43.928Z,74.54
2022-12-23T17:24:45.542Z,74.66
2022-12-23T17:29:47.286Z,74.83
2022-12-23T17:34:49.993Z,74.98
2022-12-23T17:39:51.724Z,74.55
2022-12-23T17:44:54.110Z,74.78
2022-12-23T17:49:55.736Z,74.51
2022-12-23T17:54:57.366Z,73.67
2022-12-23T17:59:58.995Z,72.84
2022-12-23T18:05:02.216Z,72.04
2022-12-23T18:10:04.216Z,71.58
2022-12-23T18:15:07.387Z,70.36
2022-12-23T18:20:18.348Z,69.35
2022-12-23T18:25:19.887Z,68.23
2022-12-23T18:30:22.001Z,69.04
2022-12-23T18:35:32.353Z,67.72
2022-12-23T18:40:34.353Z,67.94
2022-12-23T18:45:42.007Z,66.80
2022-12-23T18:50:46.635Z,67.13
2022-12-23T18:55:48.605Z,67.03
2022-12-23T19:00:52.721Z,66.63
2022-12-23T19:05:56.060Z,66.13
2022-12-23T19:10:57.713Z,65.80
2022-12-23T19:15:59.424Z,65.22
2022-12-23T19:21:04.487Z,64.56
2022-12-23T19:26:06.357Z,64.56
2022-12-23T19:31:09.756Z,64.50
2022-12-23T19:36:17.061Z,65.10
2022-12-23T19:41:19.152Z,65.14
2022-12-23T19:46:21.080Z,65.48
2022-12-23T19:51:22.700Z,65.86
2022-12-23T19:56:25.170Z,65.88
2022-12-23T20:01:27.966Z,66.37
2022-12-23T20:06:38.381Z,66.47
2022-12-23T20:11:43.450Z,66.16
2022-12-23T20:16:46.007Z,66.01
2022-12-23T20:21:47.728Z,65.80
2022-12-23T20:26:49.362Z,65.70
2022-12-23T20:31:51.096Z,64.99
2022-12-23T20:36:52.797Z,65.41
2022-12-23T20:41:54.424Z,64.90
2022-12-23T20:46:56.085Z,64.53
2022-12-23T20:51:57.958Z,64.49
2022-12-23T20:56:59.625Z,64.09
2022-12-23T21:02:01.327Z,64.08
2022-12-23T21:07:02.984Z,63.37
2022-12-23T21:12:04.849Z,63.19
2022-12-23T21:17:06.601Z,62.81
2022-12-23T21:22:08.724Z,62.09
2022-12-23T21:27:10.471Z,61.57
2022-12-23T21:32:12.046Z,61.19
2022-12-23T21:37:13.743Z,61.56
2022-12-23T21:42:15.424Z,61.45
2022-12-23T21:47:17.259Z,61.13
2022-12-23T21:52:19.020Z,61.65
2022-12-23T21:57:20.780Z,61.25
2022-12-23T22:02:22.445Z,61.14
2022-12-23T22:07:24.166Z,61.01
2022-12-23T22:12:27.022Z,60.88
2022-12-23T22:17:28.682Z,60.93
2022-12-23T22:22:30.294Z,60.39
2022-12-23T22:27:32.048Z,60.24
2022-12-23T22:32:37.750Z,59.88
2022-12-23T22:37:42.291Z,59.09
2022-12-23T22:42:43.915Z,57.89
2022-12-23T22:47:45.585Z,57.68
2022-12-23T22:52:47.349Z,56.79
2022-12-23T22:57:48.964Z,57.03
2022-12-23T23:02:50.560Z,57.33
2022-12-23T23:07:52.239Z,57.24
2022-12-23T23:12:53.857Z,56.94
2022-12-23T23:17:56.225Z,57.39
2022-12-23T23:22:57.859Z,57.38
2022-12-23T23:27:59.450Z,57.21
2022-12-23T23:33:01.077Z,57.01
2022-12-23T23:38:03.796Z,56.76
2022-12-23T23:43:05.443Z,56.70
2022-12-23T23:48:08.172Z,57.01
2022-12-23T23:53:11.934Z,57.10
2022-12-23T23:58:13.567Z,57.80
